Time;durP1;ratioP1;P1;durP2;ratioP2;P2;SDS_P1;SDS_P2;PMS_P1;PMS_P2;Temp;Humidity;BMP_temperature;BMP_pressure;BME280_temperature;BME280_humidity;BME280_pressure;Samples;Min_cycle;Max_cycle;Signal;HPM_P1;HPM_P2
2023/01/20 00:02:01;;;;;;;;;88.60;78.40;;;;;;;;5036024;28;8862;-81
2023/01/20 00:04:28;;;;;;;;;91.80;83.00;;;;;;;;5035335;28;8780;-80
2023/01/20 00:06:54;;;;;;;;;91.00;81.40;;;;;;;;5019800;28;8780;-81
2023/01/20 00:09:21;;;;;;;;;97.40;82.60;;;;;;;;5034522;28;8780;-81
2023/01/20 00:11:47;;;;;;;;;90.00;77.60;;;;;;;;5034886;28;8802;-80
2023/01/20 00:14:14;;;;;;;;;98.00;80.80;;;;;;;;5026884;28;8933;-81
2023/01/20 00:16:41;;;;;;;;;95.00;82.80;;;;;;;;5014992;28;8759;-81
2023/01/20 00:19:08;;;;;;;;;98.00;84.80;;;;;;;;4999359;28;8754;-80
2023/01/20 00:21:34;;;;;;;;;98.40;83.20;;;;;;;;5014588;28;8763;-85
2023/01/20 00:24:01;;;;;;;;;100.00;87.20;;;;;;;;5014655;28;8843;-80
2023/01/20 00:26:28;;;;;;;;;98.00;84.00;;;;;;;;4998498;28;8767;-80
2023/01/20 00:28:54;;;;;;;;;109.00;94.20;;;;;;;;5014459;28;8802;-79
2023/01/20 00:31:22;;;;;;;;;103.60;91.40;;;;;;;;5015313;28;8877;-81
2023/01/20 00:33:49;;;;;;;;;103.80;91.00;;;;;;;;4998641;28;8750;-78
2023/01/20 00:36:16;;;;;;;;;104.60;89.40;;;;;;;;4998451;28;8925;-79
2023/01/20 00:38:42;;;;;;;;;95.60;86.00;;;;;;;;4998482;28;8766;-79
2023/01/20 00:41:09;;;;;;;;;90.00;82.80;;;;;;;;5015982;28;8789;-79
2023/01/20 00:43:36;;;;;;;;;104.40;94.40;;;;;;;;5000162;28;8752;-80
2023/01/20 00:46:03;;;;;;;;;116.00;101.00;;;;;;;;5035241;28;8745;-79
2023/01/20 00:48:30;;;;;;;;;158.20;132.00;;;;;;;;5017882;28;8849;-85
2023/01/20 00:50:56;;;;;;;;;170.20;154.00;;;;;;;;5034417;28;8756;-81
2023/01/20 00:53:23;;;;;;;;;131.80;110.20;;;;;;;;5017942;28;8843;-80
2023/01/20 00:55:50;;;;;;;;;143.20;126.80;;;;;;;;5034080;28;8753;-82
2023/01/20 00:58:16;;;;;;;;;131.40;117.80;;;;;;;;5036018;28;8814;-81
2023/01/20 01:00:43;;;;;;;;;131.40;113.20;;;;;;;;5014496;28;8739;-85
2023/01/20 01:03:10;;;;;;;;;134.40;113.00;;;;;;;;5013978;28;8775;-85
2023/01/20 01:05:36;;;;;;;;;139.00;118.60;;;;;;;;5014459;28;8763;-80
2023/01/20 01:08:03;;;;;;;;;126.60;107.00;;;;;;;;4997042;28;8771;-82
2023/01/20 01:10:30;;;;;;;;;144.80;120.80;;;;;;;;5014976;28;8751;-80
2023/01/20 01:12:59;;;;;;;;;130.80;113.60;;;;;;;;5014701;28;8759;-81
2023/01/20 01:15:26;;;;;;;;;120.40;108.20;;;;;;;;5014442;28;8775;-81
2023/01/20 01:17:52;;;;;;;;;116.80;93.80;;;;;;;;5017305;28;8749;-82
2023/01/20 01:20:19;;;;;;;;;119.40;97.40;;;;;;;;5034864;28;8736;-81
2023/01/20 01:22:46;;;;;;;;;112.20;98.20;;;;;;;;5033366;28;8887;-80
2023/01/20 01:25:12;;;;;;;;;102.60;89.60;;;;;;;;5033747;28;8776;-80
2023/01/20 01:27:39;;;;;;;;;105.00;90.40;;;;;;;;5033162;28;8772;-80
2023/01/20 01:30:06;;;;;;;;;100.60;81.60;;;;;;;;5018812;28;8747;-85
2023/01/20 01:32:33;;;;;;;;;98.80;87.00;;;;;;;;4996962;28;8742;-80
2023/01/20 01:34:59;;;;;;;;;87.40;83.00;;;;;;;;4997257;28;8727;-81
2023/01/20 01:37:27;;;;;;;;;92.80;85.60;;;;;;;;5011149;28;8782;-82
2023/01/20 01:39:53;;;;;;;;;92.00;74.80;;;;;;;;5013276;28;8763;-81
2023/01/20 01:42:22;;;;;;;;;100.00;88.20;;;;;;;;5014041;28;8774;-81
2023/01/20 01:45:07;;;;;;;;;93.20;82.00;;;;;;;;5009002;28;8795;-80
2023/01/20 01:47:34;;;;;;;;;96.40;87.00;;;;;;;;5033768;28;8863;-86
2023/01/20 01:50:00;;;;;;;;;98.60;93.60;;;;;;;;5016841;28;8741;-81
2023/01/20 01:52:27;;;;;;;;;103.00;96.40;;;;;;;;5032895;28;8779;-82
2023/01/20 01:54:54;;;;;;;;;101.80;90.20;;;;;;;;5017672;28;8884;-86
2023/01/20 01:57:20;;;;;;;;;100.60;88.60;;;;;;;;5016222;28;8768;-81
2023/01/20 01:59:47;;;;;;;;;93.20;83.40;;;;;;;;5004635;28;8865;-81
2023/01/20 02:02:14;;;;;;;;;103.40;85.40;;;;;;;;5012959;28;8787;-80
2023/01/20 02:04:41;;;;;;;;;81.20;67.20;;;;;;;;5013850;28;8854;-81
2023/01/20 02:07:09;;;;;;;;;90.40;77.40;;;;;;;;4998104;28;8786;-81
2023/01/20 02:09:35;;;;;;;;;94.60;79.40;;;;;;;;5013170;28;8778;-79
2023/01/20 02:12:03;;;;;;;;;80.20;64.00;;;;;;;;4996639;28;8794;-84
2023/01/20 02:14:36;;;;;;;;;87.40;76.40;;;;;;;;5005683;28;8765;-79
2023/01/20 02:17:05;;;;;;;;;88.60;81.40;;;;;;;;5016370;28;8791;-79
2023/01/20 02:19:43;;;;;;;;;92.00;76.60;;;;;;;;5015494;28;8806;-79
2023/01/20 02:22:19;;;;;;;;;89.80;76.60;;;;;;;;5017525;28;8764;-79
2023/01/20 02:25:12;;;;;;;;;84.40;74.80;;;;;;;;5016196;28;8848;-81
2023/01/20 02:27:57;;;;;;;;;82.80;72.00;;;;;;;;5027974;28;8865;-80
2023/01/20 02:30:42;;;;;;;;;85.80;77.80;;;;;;;;5016678;28;8760;-80
2023/01/20 02:33:13;;;;;;;;;82.00;73.00;;;;;;;;5012653;28;8783;-80
2023/01/20 02:35:44;;;;;;;;;83.40;76.40;;;;;;;;5012766;28;8833;-79
2023/01/20 02:38:16;;;;;;;;;85.40;75.00;;;;;;;;5012607;28;8807;-79
2023/01/20 02:40:47;;;;;;;;;89.20;79.60;;;;;;;;4996365;28;8766;-84
2023/01/20 02:43:17;;;;;;;;;86.20;75.20;;;;;;;;5013827;28;8775;-79
2023/01/20 02:45:44;;;;;;;;;84.80;77.60;;;;;;;;5033154;28;8780;-83
2023/01/20 02:48:13;;;;;;;;;80.40;73.20;;;;;;;;5032417;28;8838;-79
2023/01/20 02:50:46;;;;;;;;;87.60;78.80;;;;;;;;5032091;28;8772;-79
2023/01/20 02:53:12;;;;;;;;;84.00;77.20;;;;;;;;5015896;28;8784;-80
2023/01/20 02:55:42;;;;;;;;;81.80;72.00;;;;;;;;5032230;28;8761;-79
2023/01/20 02:58:21;;;;;;;;;82.20;71.00;;;;;;;;5033671;28;8761;-78
2023/01/20 03:00:55;;;;;;;;;75.40;61.60;;;;;;;;5014827;28;8755;-78
2023/01/20 03:03:23;;;;;;;;;82.20;69.60;;;;;;;;5012655;28;8767;-78
2023/01/20 03:05:52;;;;;;;;;83.80;73.20;;;;;;;;4996662;28;8778;-89
2023/01/20 03:08:18;;;;;;;;;80.60;72.00;;;;;;;;4996273;28;8770;-81
2023/01/20 03:10:45;;;;;;;;;75.20;62.00;;;;;;;;5012421;28;8895;-78
2023/01/20 03:13:32;;;;;;;;;76.60;63.80;;;;;;;;4996646;28;8844;-78
2023/01/20 03:15:59;;;;;;;;;78.80;67.00;;;;;;;;5000778;28;8759;-79
2023/01/20 03:18:28;;;;;;;;;75.40;60.60;;;;;;;;5012061;28;8758;-79
2023/01/20 03:20:55;;;;;;;;;68.60;53.00;;;;;;;;5012341;28;8877;-85
2023/01/20 03:23:21;;;;;;;;;74.60;58.40;;;;;;;;4995502;28;8807;-79
2023/01/20 03:25:48;;;;;;;;;72.20;56.40;;;;;;;;4995762;28;8817;-79
2023/01/20 03:28:14;;;;;;;;;75.20;63.60;;;;;;;;4996603;28;8755;-78
2023/01/20 03:30:41;;;;;;;;;74.00;59.80;;;;;;;;5027932;28;8759;-78
2023/01/20 03:36:17;;;;;;;;;71.60;57.20;;;;;;;;4530518;27;15202827;-79
2023/01/20 03:38:44;;;;;;;;;75.60;62.40;;;;;;;;5110536;28;8786;-83
2023/01/20 03:41:18;;;;;;;;;72.00;56.75;;;;;;;;5093588;28;8799;-78
2023/01/20 03:43:45;;;;;;;;;70.60;55.60;;;;;;;;5110163;28;8808;-78
2023/01/20 03:46:15;;;;;;;;;73.40;59.20;;;;;;;;5111154;28;8780;-77
2023/01/20 03:48:46;;;;;;;;;73.00;55.20;;;;;;;;5109929;28;8867;-78
2023/01/20 03:51:25;;;;;;;;;74.20;57.20;;;;;;;;5109978;28;8826;-78
2023/01/20 03:54:06;;;;;;;;;75.60;61.60;;;;;;;;5093249;28;8772;-78
2023/01/20 03:56:35;;;;;;;;;76.60;61.80;;;;;;;;5093027;28;8753;-78
2023/01/20 03:59:02;;;;;;;;;73.25;56.00;;;;;;;;5109724;28;9383;-84
2023/01/20 04:01:32;;;;;;;;;72.50;56.50;;;;;;;;5110127;28;8790;-79
2023/01/20 04:03:59;;;;;;;;;75.25;60.50;;;;;;;;5093771;28;8772;-78
2023/01/20 04:06:26;;;;;;;;;77.60;61.20;;;;;;;;5092852;28;8913;-79
2023/01/20 04:08:56;;;;;;;;;75.80;61.60;;;;;;;;5110000;28;8816;-78
2023/01/20 04:11:23;;;;;;;;;74.20;56.80;;;;;;;;5109664;28;8779;-85
2023/01/20 04:13:50;;;;;;;;;76.20;63.20;;;;;;;;5093042;28;8878;-78
2023/01/20 04:16:17;;;;;;;;;77.00;61.60;;;;;;;;5093547;28;8816;-79
2023/01/20 04:18:45;;;;;;;;;80.60;66.20;;;;;;;;5092536;28;8794;-78
2023/01/20 04:21:16;;;;;;;;;71.20;55.80;;;;;;;;5092791;28;8764;-80
2023/01/20 04:23:44;;;;;;;;;76.00;63.00;;;;;;;;5109767;28;8764;-83
2023/01/20 04:26:10;;;;;;;;;80.20;66.40;;;;;;;;5093393;28;8768;-79
2023/01/20 04:28:37;;;;;;;;;79.60;64.80;;;;;;;;5109783;28;8760;-77
2023/01/20 04:31:04;;;;;;;;;74.40;58.60;;;;;;;;5110092;28;8783;-77
2023/01/20 04:33:30;;;;;;;;;74.00;57.75;;;;;;;;5109285;28;8871;-83
2023/01/20 04:35:57;;;;;;;;;76.00;59.50;;;;;;;;5092138;28;8780;-80
2023/01/20 04:38:24;;;;;;;;;69.75;54.25;;;;;;;;5109498;28;8757;-77
2023/01/20 04:40:50;;;;;;;;;67.50;54.25;;;;;;;;5092954;28;8740;-78
2023/01/20 04:43:17;;;;;;;;;68.25;55.75;;;;;;;;5092976;28;8921;-78
2023/01/20 04:45:44;;;;;;;;;69.50;54.25;;;;;;;;5108367;28;8740;-85
2023/01/20 04:48:10;;;;;;;;;69.75;54.75;;;;;;;;5096210;28;8764;-77
2023/01/20 04:50:40;;;;;;;;;66.25;53.25;;;;;;;;5078935;28;8776;-83
2023/01/20 04:53:07;;;;;;;;;69.75;53.50;;;;;;;;5078951;28;8752;-79
2023/01/20 04:55:34;;;;;;;;;64.25;50.00;;;;;;;;5078524;28;8780;-78
2023/01/20 04:58:00;;;;;;;;;62.75;51.50;;;;;;;;5096033;28;8748;-77
2023/01/20 05:00:27;;;;;;;;;65.50;50.25;;;;;;;;5061120;28;8878;-79
2023/01/20 05:02:57;;;;;;;;;63.50;49.50;;;;;;;;5058766;28;8801;-78
2023/01/20 05:05:23;;;;;;;;;60.75;47.25;;;;;;;;5074692;28;8774;-83
2023/01/20 05:07:53;;;;;;;;;61.00;49.25;;;;;;;;5058557;28;8747;-78
2023/01/20 05:10:20;;;;;;;;;61.00;50.50;;;;;;;;5076502;28;8752;-86
2023/01/20 05:12:47;;;;;;;;;64.50;52.25;;;;;;;;5058146;28;8869;-84
2023/01/20 05:15:13;;;;;;;;;56.50;46.75;;;;;;;;5086121;28;8764;-85
2023/01/20 05:17:40;;;;;;;;;60.25;48.00;;;;;;;;5078424;28;8765;-78
2023/01/20 05:20:07;;;;;;;;;64.75;50.50;;;;;;;;5095329;28;8772;-80
2023/01/20 05:22:34;;;;;;;;;66.75;52.75;;;;;;;;5094467;28;8887;-86
2023/01/20 05:25:00;;;;;;;;;67.00;52.25;;;;;;;;5095735;28;8748;-85
2023/01/20 05:27:27;;;;;;;;;64.75;52.00;;;;;;;;5094640;28;8752;-78
2023/01/20 05:29:53;;;;;;;;;61.75;48.50;;;;;;;;5094766;28;8841;-80
2023/01/20 05:32:20;;;;;;;;;51.00;42.00;;;;;;;;5094333;28;8775;-89
2023/01/20 05:34:48;;;;;;;;;52.75;44.75;;;;;;;;5077831;28;8799;-80
